sensor_id;sensor_type;location;lat;lon;timestamp;pressure;altitude;pressure_sealevel;temperature;humidity
10518;BME280;5307;42.548;22.968;2023-04-20T00:02:13;93492.44;;;9.49;94.59
10518;BME280;5307;42.548;22.968;2023-04-20T00:04:41;93494.56;;;9.55;93.72
10518;BME280;5307;42.548;22.968;2023-04-20T00:07:09;93494.63;;;9.64;94.41
10518;BME280;5307;42.548;22.968;2023-04-20T00:09:37;93485.84;;;9.69;92.51
10518;BME280;5307;42.548;22.968;2023-04-20T00:12:04;93489.50;;;9.75;91.60
10518;BME280;5307;42.548;22.968;2023-04-20T00:14:31;93485.22;;;9.65;91.74
10518;BME280;5307;42.548;22.968;2023-04-20T00:16:58;93485.22;;;9.65;91.60
10518;BME280;5307;42.548;22.968;2023-04-20T00:19:24;93477.34;;;9.67;91.15
10518;BME280;5307;42.548;22.968;2023-04-20T00:21:52;93483.41;;;9.62;91.16
10518;BME280;5307;42.548;22.968;2023-04-20T00:24:20;93475.84;;;9.66;93.19
10518;BME280;5307;42.548;22.968;2023-04-20T00:26:47;93476.78;;;9.81;92.50
10518;BME280;5307;42.548;22.968;2023-04-20T00:29:14;93471.28;;;9.63;93.75
10518;BME280;5307;42.548;22.968;2023-04-20T00:31:41;93476.13;;;9.59;93.95
10518;BME280;5307;42.548;22.968;2023-04-20T00:34:08;93478.31;;;9.42;95.61
10518;BME280;5307;42.548;22.968;2023-04-20T00:36:34;93445.69;;;9.60;92.99
10518;BME280;5307;42.548;22.968;2023-04-20T00:39:01;93465.53;;;9.61;93.46
10518;BME280;5307;42.548;22.968;2023-04-20T00:41:30;93464.03;;;9.60;93.40
10518;BME280;5307;42.548;22.968;2023-04-20T00:43:57;93463.06;;;9.53;96.04
10518;BME280;5307;42.548;22.968;2023-04-20T00:46:30;93469.72;;;9.43;92.74
10518;BME280;5307;42.548;22.968;2023-04-20T00:48:57;93469.94;;;9.58;92.26
10518;BME280;5307;42.548;22.968;2023-04-20T00:51:24;93458.88;;;9.71;91.56
10518;BME280;5307;42.548;22.968;2023-04-20T00:53:51;93465.28;;;9.77;90.68
10518;BME280;5307;42.548;22.968;2023-04-20T00:56:18;93468.19;;;9.42;93.02
10518;BME280;5307;42.548;22.968;2023-04-20T00:58:46;93469.69;;;9.34;95.82
10518;BME280;5307;42.548;22.968;2023-04-20T01:01:13;93466.19;;;9.34;97.19
10518;BME280;5307;42.548;22.968;2023-04-20T01:03:41;93460.75;;;9.34;97.95
10518;BME280;5307;42.548;22.968;2023-04-20T01:06:09;93464.03;;;9.29;98.61
10518;BME280;5307;42.548;22.968;2023-04-20T01:08:45;93458.75;;;9.25;100.00
10518;BME280;5307;42.548;22.968;2023-04-20T01:11:12;93462.06;;;9.20;100.00
10518;BME280;5307;42.548;22.968;2023-04-20T01:13:39;93454.47;;;9.15;98.33
10518;BME280;5307;42.548;22.968;2023-04-20T01:16:07;93463.53;;;9.12;97.66
10518;BME280;5307;42.548;22.968;2023-04-20T01:18:41;93462.06;;;9.20;95.81
10518;BME280;5307;42.548;22.968;2023-04-20T01:21:08;93457.56;;;9.35;94.43
10518;BME280;5307;42.548;22.968;2023-04-20T01:23:36;93454.41;;;9.37;92.06
10518;BME280;5307;42.548;22.968;2023-04-20T01:26:05;93453.59;;;9.27;91.79
10518;BME280;5307;42.548;22.968;2023-04-20T01:28:32;93448.69;;;9.44;91.44
10518;BME280;5307;42.548;22.968;2023-04-20T01:30:59;93449.75;;;9.46;89.69
10518;BME280;5307;42.548;22.968;2023-04-20T01:33:26;93456.25;;;9.49;89.54
10518;BME280;5307;42.548;22.968;2023-04-20T01:35:53;93453.22;;;9.47;90.23
10518;BME280;5307;42.548;22.968;2023-04-20T01:38:20;93444.75;;;9.54;89.21
10518;BME280;5307;42.548;22.968;2023-04-20T01:40:49;93457.06;;;9.59;88.31
10518;BME280;5307;42.548;22.968;2023-04-20T01:43:19;93453.53;;;9.49;87.54
10518;BME280;5307;42.548;22.968;2023-04-20T01:45:46;93439.41;;;9.41;86.63
10518;BME280;5307;42.548;22.968;2023-04-20T01:48:12;93450.19;;;9.45;86.84
10518;BME280;5307;42.548;22.968;2023-04-20T01:50:39;93452.47;;;9.46;87.09
10518;BME280;5307;42.548;22.968;2023-04-20T01:53:06;93442.78;;;9.45;86.97
10518;BME280;5307;42.548;22.968;2023-04-20T01:55:33;93436.63;;;9.23;86.89
10518;BME280;5307;42.548;22.968;2023-04-20T01:58:01;93436.97;;;9.34;87.38
10518;BME280;5307;42.548;22.968;2023-04-20T02:00:28;93445.00;;;9.38;85.92
10518;BME280;5307;42.548;22.968;2023-04-20T02:02:55;93442.47;;;9.52;85.95
10518;BME280;5307;42.548;22.968;2023-04-20T02:05:22;93451.22;;;9.29;85.42
10518;BME280;5307;42.548;22.968;2023-04-20T02:07:49;93446.66;;;9.35;85.29
10518;BME280;5307;42.548;22.968;2023-04-20T02:10:16;93442.44;;;9.34;86.65
10518;BME280;5307;42.548;22.968;2023-04-20T02:12:43;93441.63;;;9.25;85.68
10518;BME280;5307;42.548;22.968;2023-04-20T02:15:11;93440.63;;;9.31;86.03
10518;BME280;5307;42.548;22.968;2023-04-20T02:17:38;93436.53;;;9.36;86.01
10518;BME280;5307;42.548;22.968;2023-04-20T02:20:07;93430.03;;;9.33;87.29
10518;BME280;5307;42.548;22.968;2023-04-20T02:22:34;93438.50;;;9.35;89.10
10518;BME280;5307;42.548;22.968;2023-04-20T02:25:01;93444.09;;;9.32;88.91
10518;BME280;5307;42.548;22.968;2023-04-20T02:27:29;93436.38;;;9.30;87.78
10518;BME280;5307;42.548;22.968;2023-04-20T02:29:56;93435.91;;;9.32;87.71
10518;BME280;5307;42.548;22.968;2023-04-20T02:32:24;93433.06;;;9.35;88.77
10518;BME280;5307;42.548;22.968;2023-04-20T02:34:51;93433.75;;;9.27;88.45
10518;BME280;5307;42.548;22.968;2023-04-20T02:37:19;93439.66;;;9.25;90.96
10518;BME280;5307;42.548;22.968;2023-04-20T02:39:45;93443.44;;;9.18;90.95
10518;BME280;5307;42.548;22.968;2023-04-20T02:42:12;93435.44;;;9.24;91.86
10518;BME280;5307;42.548;22.968;2023-04-20T02:44:39;93447.22;;;9.21;91.35
10518;BME280;5307;42.548;22.968;2023-04-20T02:47:06;93438.25;;;9.11;92.41
10518;BME280;5307;42.548;22.968;2023-04-20T02:49:34;93443.28;;;9.22;92.23
10518;BME280;5307;42.548;22.968;2023-04-20T02:52:01;93450.66;;;9.12;93.09
10518;BME280;5307;42.548;22.968;2023-04-20T02:54:28;93432.63;;;9.06;93.45
10518;BME280;5307;42.548;22.968;2023-04-20T02:56:55;93442.19;;;9.10;94.06
10518;BME280;5307;42.548;22.968;2023-04-20T02:59:23;93440.19;;;9.02;94.91
10518;BME280;5307;42.548;22.968;2023-04-20T03:01:50;93450.44;;;8.98;96.54
10518;BME280;5307;42.548;22.968;2023-04-20T03:04:16;93445.63;;;9.02;96.84
10518;BME280;5307;42.548;22.968;2023-04-20T03:06:44;93446.31;;;9.15;96.30
10518;BME280;5307;42.548;22.968;2023-04-20T03:09:12;93450.03;;;9.08;95.07
10518;BME280;5307;42.548;22.968;2023-04-20T03:11:40;93448.25;;;9.14;94.04
10518;BME280;5307;42.548;22.968;2023-04-20T03:14:06;93450.03;;;9.08;92.37
10518;BME280;5307;42.548;22.968;2023-04-20T03:16:33;93452.91;;;9.05;93.18
10518;BME280;5307;42.548;22.968;2023-04-20T03:19:00;93445.22;;;9.12;94.43
10518;BME280;5307;42.548;22.968;2023-04-20T03:21:27;93450.19;;;9.05;95.21
10518;BME280;5307;42.548;22.968;2023-04-20T03:23:56;93445.50;;;9.05;95.12
10518;BME280;5307;42.548;22.968;2023-04-20T03:26:22;93445.84;;;9.16;94.18
10518;BME280;5307;42.548;22.968;2023-04-20T03:28:50;93446.88;;;9.10;92.50
10518;BME280;5307;42.548;22.968;2023-04-20T03:31:17;93451.41;;;9.13;92.43
10518;BME280;5307;42.548;22.968;2023-04-20T03:33:43;93447.38;;;9.17;92.81
10518;BME280;5307;42.548;22.968;2023-04-20T03:36:10;93456.00;;;9.25;91.64
10518;BME280;5307;42.548;22.968;2023-04-20T03:38:37;93452.19;;;9.13;91.89
10518;BME280;5307;42.548;22.968;2023-04-20T03:41:06;93450.25;;;9.23;92.04
10518;BME280;5307;42.548;22.968;2023-04-20T03:43:33;93451.91;;;9.20;91.59
10518;BME280;5307;42.548;22.968;2023-04-20T03:46:00;93455.13;;;9.28;90.19
10518;BME280;5307;42.548;22.968;2023-04-20T03:48:27;93455.44;;;9.30;89.92
10518;BME280;5307;42.548;22.968;2023-04-20T03:50:54;93454.19;;;9.22;90.08
10518;BME280;5307;42.548;22.968;2023-04-20T03:53:20;93460.84;;;9.21;89.04
10518;BME280;5307;42.548;22.968;2023-04-20T03:55:47;93458.13;;;9.21;89.88
10518;BME280;5307;42.548;22.968;2023-04-20T03:58:15;93462.22;;;9.26;90.26
10518;BME280;5307;42.548;22.968;2023-04-20T04:00:42;93456.66;;;9.29;89.64
10518;BME280;5307;42.548;22.968;2023-04-20T04:03:09;93458.88;;;9.21;92.24
10518;BME280;5307;42.548;22.968;2023-04-20T04:05:36;93450.41;;;9.19;94.07
10518;BME280;5307;42.548;22.968;2023-04-20T04:08:02;93460.25;;;9.26;95.53
10518;BME280;5307;42.548;22.968;2023-04-20T04:10:29;93453.69;;;9.14;97.05
10518;BME280;5307;42.548;22.968;2023-04-20T04:12:56;93464.16;;;9.16;99.89
10518;BME280;5307;42.548;22.968;2023-04-20T04:15:24;93471.69;;;9.12;100.00
10518;BME280;5307;42.548;22.968;2023-04-20T04:17:52;93476.38;;;9.11;99.81
10518;BME280;5307;42.548;22.968;2023-04-20T04:20:19;93468.94;;;9.03;99.98
10518;BME280;5307;42.548;22.968;2023-04-20T04:22:46;93472.88;;;9.02;99.43
10518;BME280;5307;42.548;22.968;2023-04-20T04:25:13;93477.72;;;9.07;100.00
10518;BME280;5307;42.548;22.968;2023-04-20T04:27:40;93478.19;;;9.05;99.16
10518;BME280;5307;42.548;22.968;2023-04-20T04:30:07;93476.75;;;8.91;98.99
10518;BME280;5307;42.548;22.968;2023-04-20T04:32:36;93471.97;;;8.74;100.00
10518;BME280;5307;42.548;22.968;2023-04-20T04:35:04;93483.66;;;8.83;100.00
10518;BME280;5307;42.548;22.968;2023-04-20T04:37:31;93478.72;;;8.69;100.00
10518;BME280;5307;42.548;22.968;2023-04-20T04:39:58;93483.53;;;8.87;100.00
10518;BME280;5307;42.548;22.968;2023-04-20T04:42:26;93485.22;;;8.93;100.00
10518;BME280;5307;42.548;22.968;2023-04-20T04:44:53;93483.13;;;8.98;100.00
10518;BME280;5307;42.548;22.968;2023-04-20T04:47:21;93484.16;;;8.91;100.00
10518;BME280;5307;42.548;22.968;2023-04-20T04:49:49;93489.91;;;8.71;100.00
10518;BME280;5307;42.548;22.968;2023-04-20T04:52:16;93492.34;;;8.47;100.00
10518;BME280;5307;42.548;22.968;2023-04-20T04:54:43;93493.81;;;8.61;100.00
10518;BME280;5307;42.548;22.968;2023-04-20T04:57:16;93499.91;;;8.96;100.00
10518;BME280;5307;42.548;22.968;2023-04-20T04:59:43;93490.91;;;8.86;100.00
10518;BME280;5307;42.548;22.968;2023-04-20T05:02:09;93495.44;;;9.11;100.00
10518;BME280;5307;42.548;22.968;2023-04-20T05:04:36;93492.56;;;9.06;100.00
10518;BME280;5307;42.548;22.968;2023-04-20T05:07:04;93500.72;;;9.06;100.00
10518;BME280;5307;42.548;22.968;2023-04-20T05:09:31;93505.91;;;9.13;100.00
10518;BME280;5307;42.548;22.968;2023-04-20T05:11:58;93505.41;;;9.05;100.00
10518;BME280;5307;42.548;22.968;2023-04-20T05:14:27;93501.75;;;8.99;100.00
10518;BME280;5307;42.548;22.968;2023-04-20T05:16:54;93509.44;;;9.22;100.00
10518;BME280;5307;42.548;22.968;2023-04-20T05:19:27;93502.78;;;9.23;100.00
10518;BME280;5307;42.548;22.968;2023-04-20T05:21:53;93505.66;;;9.20;100.00
10518;BME280;5307;42.548;22.968;2023-04-20T05:24:22;93507.03;;;9.25;100.00
10518;BME280;5307;42.548;22.968;2023-04-20T05:26:48;93507.34;;;9.27;100.00
10518;BME280;5307;42.548;22.968;2023-04-20T05:29:15;93495.50;;;9.20;100.00
10518;BME280;5307;42.548;22.968;2023-04-20T05:31:42;93503.84;;;9.26;100.00
10518;BME280;5307;42.548;22.968;2023-04-20T05:34:09;93503.28;;;9.31;100.00
10518;BME280;5307;42.548;22.968;2023-04-20T05:36:36;93494.38;;;9.40;100.00
10518;BME280;5307;42.548;22.968;2023-04-20T05:39:03;93500.00;;;9.45;100.00
10518;BME280;5307;42.548;22.968;2023-04-20T05:41:32;93506.63;;;9.35;100.00
10518;BME280;5307;42.548;22.968;2023-04-20T05:43:58;93499.34;;;9.32;100.00
10518;BME280;5307;42.548;22.968;2023-04-20T05:46:25;93502.03;;;9.23;100.00
10518;BME280;5307;42.548;22.968;2023-04-20T05:48:53;93506.16;;;9.37;100.00
10518;BME280;5307;42.548;22.968;2023-04-20T05:51:20;93506.53;;;9.48;100.00
10518;BME280;5307;42.548;22.968;2023-04-20T05:53:47;93511.22;;;9.47;97.18
10518;BME280;5307;42.548;22.968;2023-04-20T05:56:14;93499.47;;;9.60;95.98
10518;BME280;5307;42.548;22.968;2023-04-20T05:58:44;93505.56;;;9.82;96.46
10518;BME280;5307;42.548;22.968;2023-04-20T06:01:11;93511.31;;;9.75;90.80
10518;BME280;5307;42.548;22.968;2023-04-20T06:03:37;93510.53;;;9.65;88.73
10518;BME280;5307;42.548;22.968;2023-04-20T06:06:05;93509.00;;;9.64;87.91
10518;BME280;5307;42.548;22.968;2023-04-20T06:08:32;93502.13;;;9.50;87.85
10518;BME280;5307;42.548;22.968;2023-04-20T06:10:58;93508.22;;;9.55;89.49
10518;BME280;5307;42.548;22.968;2023-04-20T06:13:25;93514.84;;;9.44;89.38
10518;BME280;5307;42.548;22.968;2023-04-20T06:15:53;93508.69;;;9.62;90.76
10518;BME280;5307;42.548;22.968;2023-04-20T06:18:21;93511.47;;;9.40;89.70
10518;BME280;5307;42.548;22.968;2023-04-20T06:20:48;93515.31;;;9.52;91.87
10518;BME280;5307;42.548;22.968;2023-04-20T06:23:15;93508.28;;;9.73;95.16
10518;BME280;5307;42.548;22.968;2023-04-20T06:25:41;93515.38;;;9.61;95.66
10518;BME280;5307;42.548;22.968;2023-04-20T06:28:08;93515.66;;;9.63;95.83
10518;BME280;5307;42.548;22.968;2023-04-20T06:30:35;93520.81;;;9.61;96.08
10518;BME280;5307;42.548;22.968;2023-04-20T06:33:03;93521.28;;;9.60;98.04
10518;BME280;5307;42.548;22.968;2023-04-20T06:35:30;93523.34;;;9.56;98.68
10518;BME280;5307;42.548;22.968;2023-04-20T06:37:57;93523.53;;;9.61;95.86
10518;BME280;5307;42.548;22.968;2023-04-20T06:40:27;93520.06;;;9.70;96.18
10518;BME280;5307;42.548;22.968;2023-04-20T06:42:53;93515.25;;;9.74;95.68
10518;BME280;5307;42.548;22.968;2023-04-20T06:45:20;93527.09;;;9.80;96.15
10518;BME280;5307;42.548;22.968;2023-04-20T06:47:47;93522.38;;;9.71;96.84
10518;BME280;5307;42.548;22.968;2023-04-20T06:50:16;93527.69;;;9.75;98.61
10518;BME280;5307;42.548;22.968;2023-04-20T06:52:42;93534.09;;;9.90;100.00
10518;BME280;5307;42.548;22.968;2023-04-20T06:55:10;93533.13;;;9.75;100.00
10518;BME280;5307;42.548;22.968;2023-04-20T06:57:37;93538.59;;;9.75;100.00
10518;BME280;5307;42.548;22.968;2023-04-20T07:00:06;93531.31;;;9.81;100.00
10518;BME280;5307;42.548;22.968;2023-04-20T07:02:41;93536.22;;;9.95;100.00
10518;BME280;5307;42.548;22.968;2023-04-20T07:05:08;93537.13;;;9.92;100.00
10518;BME280;5307;42.548;22.968;2023-04-20T07:07:37;93539.81;;;9.83;98.90
10518;BME280;5307;42.548;22.968;2023-04-20T07:10:05;93538.94;;;9.86;99.46
10518;BME280;5307;42.548;22.968;2023-04-20T07:12:33;93532.69;;;9.76;99.13
10518;BME280;5307;42.548;22.968;2023-04-20T07:15:00;93541.56;;;9.68;99.15
10518;BME280;5307;42.548;22.968;2023-04-20T07:17:28;93545.22;;;9.65;98.55
10518;BME280;5307;42.548;22.968;2023-04-20T07:19:54;93548.25;;;9.67;97.72
10518;BME280;5307;42.548;22.968;2023-04-20T07:22:22;93549.25;;;9.51;97.06
10518;BME280;5307;42.548;22.968;2023-04-20T07:24:50;93554.28;;;9.62;97.68
10518;BME280;5307;42.548;22.968;2023-04-20T07:27:17;93550.25;;;9.75;98.09
10518;BME280;5307;42.548;22.968;2023-04-20T07:29:44;93556.13;;;9.65;99.27
10518;BME280;5307;42.548;22.968;2023-04-20T07:32:11;93556.66;;;9.50;100.00
10518;BME280;5307;42.548;22.968;2023-04-20T07:34:39;93551.91;;;9.73;100.00
10518;BME280;5307;42.548;22.968;2023-04-20T07:37:05;93553.38;;;9.65;100.00
10518;BME280;5307;42.548;22.968;2023-04-20T07:39:32;93553.22;;;9.59;100.00
10518;BME280;5307;42.548;22.968;2023-04-20T07:42:08;93557.03;;;9.71;100.00
10518;BME280;5307;42.548;22.968;2023-04-20T07:44:35;93556.41;;;9.58;100.00
10518;BME280;5307;42.548;22.968;2023-04-20T07:47:03;93554.53;;;9.86;100.00
10518;BME280;5307;42.548;22.968;2023-04-20T07:49:30;93553.19;;;9.90;100.00
10518;BME280;5307;42.548;22.968;2023-04-20T07:51:57;93550.75;;;9.92;100.00
10518;BME280;5307;42.548;22.968;2023-04-20T07:54:24;93557.47;;;10.00;100.00
10518;BME280;5307;42.548;22.968;2023-04-20T07:56:50;93552.31;;;10.11;100.00
10518;BME280;5307;42.548;22.968;2023-04-20T07:59:19;93555.94;;;10.08;97.39
10518;BME280;5307;42.548;22.968;2023-04-20T08:01:46;93558.72;;;10.18;94.78
10518;BME280;5307;42.548;22.968;2023-04-20T08:04:12;93558.72;;;10.18;95.32
10518;BME280;5307;42.548;22.968;2023-04-20T08:06:39;93551.69;;;9.98;93.99
10518;BME280;5307;42.548;22.968;2023-04-20T08:09:06;93549.91;;;10.14;93.61
10518;BME280;5307;42.548;22.968;2023-04-20T08:11:33;93555.88;;;10.30;93.93
10518;BME280;5307;42.548;22.968;2023-04-20T08:14:00;93546.28;;;10.17;92.66
10518;BME280;5307;42.548;22.968;2023-04-20T08:16:28;93543.75;;;10.31;92.70
10518;BME280;5307;42.548;22.968;2023-04-20T08:18:55;93545.63;;;9.94;92.62
10518;BME280;5307;42.548;22.968;2023-04-20T08:21:22;93549.31;;;10.19;93.83
10518;BME280;5307;42.548;22.968;2023-04-20T08:23:48;93545.69;;;10.22;94.59
10518;BME280;5307;42.548;22.968;2023-04-20T08:26:15;93551.16;;;10.22;92.83
10518;BME280;5307;42.548;22.968;2023-04-20T08:28:42;93550.19;;;10.06;91.75
10518;BME280;5307;42.548;22.968;2023-04-20T08:31:10;93546.31;;;10.26;92.00
10518;BME280;5307;42.548;22.968;2023-04-20T08:33:40;93540.28;;;10.31;91.47
10518;BME280;5307;42.548;22.968;2023-04-20T08:36:07;93542.53;;;10.32;92.42
10518;BME280;5307;42.548;22.968;2023-04-20T08:38:33;93538.88;;;10.26;91.78
10518;BME280;5307;42.548;22.968;2023-04-20T08:41:00;93540.25;;;10.40;90.63
10518;BME280;5307;42.548;22.968;2023-04-20T08:43:27;93541.81;;;10.59;90.92
10518;BME280;5307;42.548;22.968;2023-04-20T08:45:57;93549.09;;;10.72;91.03
10518;BME280;5307;42.548;22.968;2023-04-20T08:48:24;93540.56;;;10.69;90.56
10518;BME280;5307;42.548;22.968;2023-04-20T08:50:53;93543.47;;;10.75;88.14
10518;BME280;5307;42.548;22.968;2023-04-20T08:53:20;93534.84;;;10.58;87.55
10518;BME280;5307;42.548;22.968;2023-04-20T08:55:48;93540.16;;;10.71;87.62
10518;BME280;5307;42.548;22.968;2023-04-20T08:58:16;93542.09;;;10.80;87.97
10518;BME280;5307;42.548;22.968;2023-04-20T09:00:46;93544.53;;;10.78;87.13
10518;BME280;5307;42.548;22.968;2023-04-20T09:03:13;93542.25;;;10.67;85.98
10518;BME280;5307;42.548;22.968;2023-04-20T09:05:40;93545.44;;;10.65;86.53
10518;BME280;5307;42.548;22.968;2023-04-20T09:08:08;93548.16;;;10.84;88.01
10518;BME280;5307;42.548;22.968;2023-04-20T09:10:39;93538.75;;;10.94;87.21
10518;BME280;5307;42.548;22.968;2023-04-20T09:13:06;93532.09;;;10.86;85.82
10518;BME280;5307;42.548;22.968;2023-04-20T09:15:33;93538.16;;;10.81;85.97
10518;BME280;5307;42.548;22.968;2023-04-20T09:18:10;93539.06;;;10.78;85.41
10518;BME280;5307;42.548;22.968;2023-04-20T09:20:38;93528.75;;;10.73;84.70
10518;BME280;5307;42.548;22.968;2023-04-20T09:23:13;93532.41;;;10.88;83.87
10518;BME280;5307;42.548;22.968;2023-04-20T09:25:41;93524.50;;;10.90;82.58
10518;BME280;5307;42.548;22.968;2023-04-20T09:28:09;93514.63;;;10.83;81.49
10518;BME280;5307;42.548;22.968;2023-04-20T09:30:37;93521.16;;;10.95;81.14
10518;BME280;5307;42.548;22.968;2023-04-20T09:33:04;93522.44;;;11.36;81.73
10518;BME280;5307;42.548;22.968;2023-04-20T09:35:32;93511.38;;;11.30;80.13
10518;BME280;5307;42.548;22.968;2023-04-20T09:37:59;93513.38;;;11.63;79.93
10518;BME280;5307;42.548;22.968;2023-04-20T09:40:27;93515.81;;;11.61;78.77
10518;BME280;5307;42.548;22.968;2023-04-20T09:42:58;93512.69;;;11.86;78.01
10518;BME280;5307;42.548;22.968;2023-04-20T09:45:28;93514.03;;;11.91;77.50
10518;BME280;5307;42.548;22.968;2023-04-20T09:47:55;93519.66;;;11.97;78.55
10518;BME280;5307;42.548;22.968;2023-04-20T09:50:23;93512.13;;;11.82;77.13
10518;BME280;5307;42.548;22.968;2023-04-20T09:52:51;93503.84;;;11.92;75.47
10518;BME280;5307;42.548;22.968;2023-04-20T09:55:18;93516.09;;;12.29;75.67
10518;BME280;5307;42.548;22.968;2023-04-20T09:57:47;93508.16;;;11.83;74.74
10518;BME280;5307;42.548;22.968;2023-04-20T10:00:16;93510.75;;;12.11;74.99
10518;BME280;5307;42.548;22.968;2023-04-20T10:02:45;93488.78;;;12.20;74.79
10518;BME280;5307;42.548;22.968;2023-04-20T10:05:12;93498.78;;;12.47;75.20
10518;BME280;5307;42.548;22.968;2023-04-20T10:07:40;93499.25;;;12.45;73.86
10518;BME280;5307;42.548;22.968;2023-04-20T10:10:08;93493.50;;;12.43;73.79
10518;BME280;5307;42.548;22.968;2023-04-20T10:12:53;93488.53;;;12.57;73.36
10518;BME280;5307;42.548;22.968;2023-04-20T10:15:21;93488.88;;;12.49;71.44
10518;BME280;5307;42.548;22.968;2023-04-20T10:17:48;93486.28;;;12.70;70.93
10518;BME280;5307;42.548;22.968;2023-04-20T10:20:23;93485.19;;;13.06;72.17
10518;BME280;5307;42.548;22.968;2023-04-20T10:22:51;93486.69;;;12.92;69.21
10518;BME280;5307;42.548;22.968;2023-04-20T10:25:21;93481.09;;;12.72;69.74
10518;BME280;5307;42.548;22.968;2023-04-20T10:27:56;93471.38;;;13.00;69.30
10518;BME280;5307;42.548;22.968;2023-04-20T10:30:24;93486.91;;;12.65;69.01
10518;BME280;5307;42.548;22.968;2023-04-20T10:33:02;93476.47;;;12.78;68.45
10518;BME280;5307;42.548;22.968;2023-04-20T10:35:40;93478.56;;;12.83;68.20
10518;BME280;5307;42.548;22.968;2023-04-20T10:38:07;93474.69;;;13.04;67.50
10518;BME280;5307;42.548;22.968;2023-04-20T10:40:34;93482.91;;;13.04;66.88
10518;BME280;5307;42.548;22.968;2023-04-20T10:43:03;93478.97;;;13.35;69.50
10518;BME280;5307;42.548;22.968;2023-04-20T10:45:33;93476.22;;;13.50;69.08
10518;BME280;5307;42.548;22.968;2023-04-20T10:48:06;93470.03;;;13.70;69.78
10518;BME280;5307;42.548;22.968;2023-04-20T10:50:33;93469.50;;;13.36;65.01
10518;BME280;5307;42.548;22.968;2023-04-20T10:53:01;93469.91;;;13.29;64.27
10518;BME280;5307;42.548;22.968;2023-04-20T10:55:28;93465.72;;;13.33;63.52
10518;BME280;5307;42.548;22.968;2023-04-20T10:57:55;93470.06;;;13.55;64.77
10518;BME280;5307;42.548;22.968;2023-04-20T11:00:25;93463.72;;;13.99;64.99
10518;BME280;5307;42.548;22.968;2023-04-20T11:02:53;93467.38;;;13.75;63.10
10518;BME280;5307;42.548;22.968;2023-04-20T11:05:22;93468.94;;;13.96;64.38
10518;BME280;5307;42.548;22.968;2023-04-20T11:07:52;93474.56;;;13.73;63.15
10518;BME280;5307;42.548;22.968;2023-04-20T11:10:19;93464.41;;;13.79;61.08
10518;BME280;5307;42.548;22.968;2023-04-20T11:12:47;93462.53;;;14.05;61.78
10518;BME280;5307;42.548;22.968;2023-04-20T11:15:13;93463.72;;;13.99;61.54
10518;BME280;5307;42.548;22.968;2023-04-20T11:17:42;93468.97;;;13.82;61.64
10518;BME280;5307;42.548;22.968;2023-04-20T11:20:11;93465.47;;;13.81;62.06
10518;BME280;5307;42.548;22.968;2023-04-20T11:22:39;93462.78;;;13.66;60.64
10518;BME280;5307;42.548;22.968;2023-04-20T11:25:07;93470.88;;;13.76;60.53
10518;BME280;5307;42.548;22.968;2023-04-20T11:27:35;93460.19;;;13.63;58.88
10518;BME280;5307;42.548;22.968;2023-04-20T11:30:03;93454.38;;;13.55;59.96
10518;BME280;5307;42.548;22.968;2023-04-20T11:32:32;93455.94;;;13.62;60.64
10518;BME280;5307;42.548;22.968;2023-04-20T11:35:02;93460.63;;;13.41;59.33
10518;BME280;5307;42.548;22.968;2023-04-20T11:37:31;93457.16;;;13.26;59.40
10518;BME280;5307;42.548;22.968;2023-04-20T11:39:59;93458.63;;;13.56;60.62
10518;BME280;5307;42.548;22.968;2023-04-20T11:42:26;93457.97;;;13.32;60.04
10518;BME280;5307;42.548;22.968;2023-04-20T11:44:53;93447.75;;;13.32;59.99
10518;BME280;5307;42.548;22.968;2023-04-20T11:47:20;93451.78;;;13.66;60.94
10518;BME280;5307;42.548;22.968;2023-04-20T11:49:46;93442.84;;;13.51;60.13
10518;BME280;5307;42.548;22.968;2023-04-20T11:52:14;93443.94;;;13.59;62.34
10518;BME280;5307;42.548;22.968;2023-04-20T11:54:41;93443.22;;;13.44;61.13
10518;BME280;5307;42.548;22.968;2023-04-20T11:57:08;93441.69;;;13.43;60.89
10518;BME280;5307;42.548;22.968;2023-04-20T11:59:35;93442.47;;;13.29;61.77
10518;BME280;5307;42.548;22.968;2023-04-20T12:02:02;93431.97;;;13.13;63.08
10518;BME280;5307;42.548;22.968;2023-04-20T12:04:30;93442.47;;;13.29;63.28
10518;BME280;5307;42.548;22.968;2023-04-20T12:06:57;93439.72;;;13.44;63.95
10518;BME280;5307;42.548;22.968;2023-04-20T12:09:25;93432.91;;;13.54;63.48
10518;BME280;5307;42.548;22.968;2023-04-20T12:11:52;93439.78;;;13.49;64.61
10518;BME280;5307;42.548;22.968;2023-04-20T12:14:19;93440.75;;;13.46;63.92
10518;BME280;5307;42.548;22.968;2023-04-20T12:16:46;93434.19;;;13.23;63.03
10518;BME280;5307;42.548;22.968;2023-04-20T12:19:13;93437.69;;;13.24;64.99
10518;BME280;5307;42.548;22.968;2023-04-20T12:21:40;93440.56;;;13.35;63.87
10518;BME280;5307;42.548;22.968;2023-04-20T12:24:07;93446.44;;;13.43;64.09
10518;BME280;5307;42.548;22.968;2023-04-20T12:26:35;93446.25;;;13.17;65.60
10518;BME280;5307;42.548;22.968;2023-04-20T12:29:01;93449.63;;;12.67;70.20
10518;BME280;5307;42.548;22.968;2023-04-20T12:31:28;93451.75;;;11.77;82.04
10518;BME280;5307;42.548;22.968;2023-04-20T12:33:55;93443.59;;;11.68;85.86
10518;BME280;5307;42.548;22.968;2023-04-20T12:36:22;93449.38;;;12.03;87.49
10518;BME280;5307;42.548;22.968;2023-04-20T12:38:49;93440.88;;;12.01;86.42
10518;BME280;5307;42.548;22.968;2023-04-20T12:41:18;93451.53;;;11.99;90.86
10518;BME280;5307;42.548;22.968;2023-04-20T12:43:48;93448.31;;;11.67;91.98
10518;BME280;5307;42.548;22.968;2023-04-20T12:46:15;93449.19;;;11.82;94.82
10518;BME280;5307;42.548;22.968;2023-04-20T12:48:42;93442.41;;;11.69;96.73
10518;BME280;5307;42.548;22.968;2023-04-20T12:51:10;93444.97;;;11.72;99.21
10518;BME280;5307;42.548;22.968;2023-04-20T12:53:37;93448.41;;;11.82;100.00
10518;BME280;5307;42.548;22.968;2023-04-20T12:56:04;93444.59;;;11.88;100.00
10518;BME280;5307;42.548;22.968;2023-04-20T12:58:31;93434.47;;;11.71;100.00
10518;BME280;5307;42.548;22.968;2023-04-20T13:00:59;93436.03;;;11.63;100.00
10518;BME280;5307;42.548;22.968;2023-04-20T13:03:26;93428.47;;;11.91;96.20
10518;BME280;5307;42.548;22.968;2023-04-20T13:05:52;93432.47;;;12.04;97.22
10518;BME280;5307;42.548;22.968;2023-04-20T13:08:19;93438.66;;;11.90;96.64